createdAt,value
2022-09-20T00:01:00.520Z,1.50
2022-09-20T00:02:04.795Z,0.00
2022-09-20T00:03:08.176Z,0.00
2022-09-20T00:04:12.506Z,0.50
2022-09-20T00:05:16.226Z,0.00
2022-09-20T00:06:23.109Z,0.00
2022-09-20T00:07:27.609Z,0.00
2022-09-20T00:08:31.371Z,0.50
2022-09-20T00:09:34.869Z,0.50
2022-09-20T00:10:38.236Z,0.00
2022-09-20T00:11:41.940Z,0.50
2022-09-20T00:12:45.515Z,1.00
2022-09-20T00:13:48.803Z,0.75
2022-09-20T00:14:52.332Z,0.00
2022-09-20T00:15:55.993Z,0.00
2022-09-20T00:17:00.029Z,0.50
2022-09-20T00:18:03.580Z,1.00
2022-09-20T00:19:16.728Z,0.50
2022-09-20T00:20:20.078Z,0.00
2022-09-20T00:21:23.734Z,0.50
2022-09-20T00:22:27.593Z,1.00
2022-09-20T00:23:31.073Z,0.50
2022-09-20T00:24:34.342Z,0.00
2022-09-20T00:25:37.943Z,0.50
2022-09-20T00:26:41.627Z,1.00
2022-09-20T00:27:45.111Z,0.50
2022-09-20T00:28:48.711Z,0.00
2022-09-20T00:29:52.612Z,0.00
2022-09-20T00:30:56.100Z,0.00
2022-09-20T00:31:59.742Z,0.25
2022-09-20T00:33:03.088Z,0.00
2022-09-20T00:34:06.740Z,0.00
2022-09-20T00:35:10.157Z,0.50
2022-09-20T00:36:14.152Z,0.25
2022-09-20T00:37:18.056Z,0.25
2022-09-20T00:38:21.544Z,0.00
2022-09-20T00:39:25.142Z,0.00
2022-09-20T00:40:28.564Z,1.00
2022-09-20T00:41:31.914Z,0.25
2022-09-20T00:42:35.804Z,0.00
2022-09-20T00:43:39.291Z,0.50
2022-09-20T00:44:42.481Z,0.50
2022-09-20T00:45:45.764Z,0.00
2022-09-20T00:46:49.160Z,0.00
2022-09-20T00:47:52.643Z,0.00
2022-09-20T00:48:55.933Z,0.00
2022-09-20T00:49:59.717Z,0.00
2022-09-20T00:51:03.521Z,0.00
2022-09-20T00:52:07.332Z,0.50
2022-09-20T00:53:10.904Z,1.00
2022-09-20T00:54:18.099Z,1.00
2022-09-20T00:55:18.847Z,0.50
2022-09-20T00:56:22.187Z,0.75
2022-09-20T00:57:25.490Z,0.50
2022-09-20T00:58:28.759Z,0.50
2022-09-20T00:59:32.244Z,0.00
2022-09-20T01:00:36.450Z,0.00
2022-09-20T01:01:39.899Z,0.50
2022-09-20T01:02:43.387Z,0.50
2022-09-20T01:03:47.943Z,0.00
2022-09-20T01:04:51.427Z,0.00
2022-09-20T01:05:55.351Z,0.00
2022-09-20T01:06:59.329Z,0.50
2022-09-20T01:08:02.929Z,0.50
2022-09-20T01:09:06.409Z,0.00
2022-09-20T01:10:09.910Z,0.50
2022-09-20T01:11:14.335Z,0.50
2022-09-20T01:12:17.801Z,0.75
2022-09-20T01:13:21.802Z,0.00
2022-09-20T01:14:25.300Z,0.00
2022-09-20T01:15:28.997Z,0.50
2022-09-20T01:16:32.438Z,0.00
2022-09-20T01:17:35.740Z,0.00
2022-09-20T01:18:39.049Z,0.00
2022-09-20T01:19:42.425Z,0.00
2022-09-20T01:20:45.928Z,0.50
2022-09-20T01:21:49.710Z,0.20
2022-09-20T01:22:53.103Z,0.00
2022-09-20T01:23:56.493Z,0.00
2022-09-20T01:24:59.972Z,0.00
2022-09-20T01:26:03.262Z,0.00
2022-09-20T01:27:06.442Z,0.60
2022-09-20T01:28:09.828Z,0.50
2022-09-20T01:29:13.111Z,0.00
2022-09-20T01:30:16.502Z,0.00
2022-09-20T01:31:19.743Z,0.00
2022-09-20T01:32:23.068Z,0.50
2022-09-20T01:33:26.348Z,0.00
2022-09-20T01:34:29.630Z,1.00
2022-09-20T01:35:33.030Z,0.50
2022-09-20T01:36:36.302Z,0.00
2022-09-20T01:37:39.382Z,0.50
2022-09-20T01:38:42.774Z,0.00
2022-09-20T01:39:46.050Z,0.75
2022-09-20T01:40:49.336Z,0.50
2022-09-20T01:41:52.623Z,0.60
2022-09-20T01:42:56.111Z,0.50
2022-09-20T01:43:59.394Z,0.75
2022-09-20T01:45:02.583Z,0.00
2022-09-20T01:46:06.131Z,0.50
2022-09-20T01:47:09.662Z,0.50
2022-09-20T01:48:13.042Z,0.50
2022-09-20T01:49:16.328Z,0.00
2022-09-20T01:50:19.820Z,0.00
2022-09-20T01:51:23.119Z,0.75
2022-09-20T01:52:26.791Z,0.25
2022-09-20T01:53:30.263Z,0.00
2022-09-20T01:54:33.570Z,0.50
2022-09-20T01:55:37.160Z,1.00
2022-09-20T01:56:40.549Z,0.50
2022-09-20T01:57:44.551Z,0.50
2022-09-20T01:59:01.679Z,0.00
2022-09-20T01:59:52.091Z,0.50
2022-09-20T02:00:55.359Z,1.00
2022-09-20T02:01:58.652Z,0.00
2022-09-20T02:03:01.915Z,0.00
2022-09-20T02:04:05.583Z,0.00
2022-09-20T02:05:09.076Z,0.50
2022-09-20T02:06:12.664Z,0.50
2022-09-20T02:07:16.358Z,1.00
2022-09-20T02:08:19.747Z,0.50
2022-09-20T02:09:23.435Z,0.00
2022-09-20T02:10:26.754Z,0.00
2022-09-20T02:11:30.445Z,0.00
2022-09-20T02:12:34.006Z,0.00
2022-09-20T02:13:37.187Z,0.00
2022-09-20T02:14:40.883Z,0.00
2022-09-20T02:15:44.073Z,0.00
2022-09-20T02:16:47.576Z,0.00
2022-09-20T02:17:50.941Z,0.50
2022-09-20T02:18:54.432Z,0.00
2022-09-20T02:19:57.614Z,0.00
2022-09-20T02:21:01.019Z,0.00
2022-09-20T02:22:05.105Z,0.50
2022-09-20T02:23:08.437Z,0.50
2022-09-20T02:24:11.875Z,0.00
2022-09-20T02:25:14.974Z,0.50
2022-09-20T02:26:18.342Z,1.00
2022-09-20T02:27:21.583Z,0.50
2022-09-20T02:28:24.812Z,0.00
2022-09-20T02:29:28.114Z,0.00
2022-09-20T02:30:31.581Z,0.50
2022-09-20T02:31:35.324Z,0.00
2022-09-20T02:32:38.560Z,0.00
2022-09-20T02:33:48.987Z,0.00
2022-09-20T02:34:52.399Z,0.00
2022-09-20T02:35:55.562Z,0.00
2022-09-20T02:36:58.760Z,0.00
2022-09-20T02:38:01.899Z,0.00
2022-09-20T02:39:04.931Z,0.00
2022-09-20T02:40:08.549Z,0.00
2022-09-20T02:41:12.026Z,0.00
2022-09-20T02:42:15.198Z,0.50
2022-09-20T02:43:18.461Z,0.50
2022-09-20T02:44:21.746Z,0.00
2022-09-20T02:45:25.040Z,0.00
2022-09-20T02:46:30.363Z,0.50
2022-09-20T02:47:33.960Z,0.75
2022-09-20T02:48:37.353Z,1.00
2022-09-20T02:49:41.037Z,0.75
2022-09-20T02:50:44.430Z,0.50
2022-09-20T02:51:48.022Z,0.50
2022-09-20T02:52:51.203Z,0.00
2022-09-20T02:53:54.382Z,0.00
2022-09-20T02:54:57.558Z,0.00
2022-09-20T02:56:00.844Z,0.00
2022-09-20T02:57:04.334Z,0.50
2022-09-20T02:58:08.152Z,1.00
2022-09-20T02:59:11.519Z,0.00
2022-09-20T03:00:15.007Z,0.00
2022-09-20T03:01:18.536Z,0.50
2022-09-20T03:02:21.903Z,1.00
2022-09-20T03:03:25.375Z,0.50
2022-09-20T03:04:31.116Z,0.25
2022-09-20T03:05:34.705Z,0.00
2022-09-20T03:06:38.356Z,0.00
2022-09-20T03:07:41.581Z,0.25
2022-09-20T03:08:44.867Z,1.00
2022-09-20T03:09:48.152Z,0.50
2022-09-20T03:10:51.536Z,0.50
2022-09-20T03:11:54.818Z,0.00
2022-09-20T03:12:58.105Z,0.00
2022-09-20T03:14:01.596Z,0.50
2022-09-20T03:15:04.772Z,1.00
2022-09-20T03:16:08.630Z,0.50
2022-09-20T03:17:12.064Z,0.00
2022-09-20T03:18:15.149Z,0.00
2022-09-20T03:19:18.656Z,1.00
2022-09-20T03:20:21.675Z,0.00
2022-09-20T03:21:25.199Z,0.00
2022-09-20T03:22:28.790Z,0.00
2022-09-20T03:23:32.073Z,0.00
2022-09-20T03:24:35.563Z,0.00
2022-09-20T03:25:38.958Z,0.50
2022-09-20T03:26:42.343Z,0.50
2022-09-20T03:27:45.829Z,0.00
2022-09-20T03:28:49.212Z,0.80
2022-09-20T03:29:52.598Z,0.75
2022-09-20T03:30:55.811Z,0.25
2022-09-20T03:31:59.348Z,0.00
2022-09-20T03:33:02.760Z,0.00
2022-09-20T03:34:06.158Z,0.00
2022-09-20T03:35:09.737Z,0.00
2022-09-20T03:36:13.025Z,0.00
2022-09-20T03:37:16.408Z,0.20
2022-09-20T03:38:19.894Z,0.00
2022-09-20T03:39:23.180Z,0.50
2022-09-20T03:40:26.761Z,1.50
2022-09-20T03:41:30.170Z,1.25
2022-09-20T03:42:33.750Z,0.00
2022-09-20T03:43:37.345Z,0.50
2022-09-20T03:44:40.840Z,0.50
2022-09-20T03:45:44.497Z,0.50
2022-09-20T03:46:47.805Z,0.50
2022-09-20T03:47:51.308Z,0.00
2022-09-20T03:48:54.578Z,0.00
2022-09-20T03:49:57.963Z,0.50
2022-09-20T03:51:01.760Z,0.00
2022-09-20T03:52:05.352Z,0.50
2022-09-20T03:53:08.960Z,0.75
2022-09-20T03:54:12.430Z,0.25
2022-09-20T03:55:15.618Z,0.00
2022-09-20T03:56:19.416Z,0.50
2022-09-20T03:57:22.979Z,0.75
2022-09-20T03:58:26.203Z,0.50
2022-09-20T03:59:29.889Z,0.00
2022-09-20T04:00:33.173Z,0.00
2022-09-20T04:01:36.812Z,0.00
2022-09-20T04:02:40.200Z,0.00
2022-09-20T04:03:43.531Z,0.00
2022-09-20T04:04:46.917Z,0.25
2022-09-20T04:05:50.503Z,0.00
2022-09-20T04:06:53.902Z,0.00
2022-09-20T04:07:57.586Z,0.50
2022-09-20T04:09:01.078Z,0.00
2022-09-20T04:10:04.564Z,0.25
2022-09-20T04:11:07.954Z,0.25
2022-09-20T04:12:11.551Z,0.75
2022-09-20T04:13:15.446Z,1.50
2022-09-20T04:14:18.937Z,0.00
2022-09-20T04:15:22.628Z,0.00
2022-09-20T04:16:31.225Z,0.50
2022-09-20T04:17:34.627Z,1.00
2022-09-20T04:18:37.963Z,0.50
2022-09-20T04:19:41.089Z,0.50
2022-09-20T04:20:44.585Z,0.00
2022-09-20T04:21:47.760Z,0.00
2022-09-20T04:22:51.044Z,0.00
2022-09-20T04:23:54.328Z,0.00
2022-09-20T04:24:57.370Z,0.00
2022-09-20T04:26:00.485Z,0.00
2022-09-20T04:27:03.767Z,0.50
2022-09-20T04:28:07.154Z,0.50
2022-09-20T04:29:10.544Z,0.00
2022-09-20T04:30:13.827Z,0.50
2022-09-20T04:31:19.184Z,0.50
2022-09-20T04:32:21.854Z,0.00
2022-09-20T04:33:25.219Z,0.00
2022-09-20T04:34:28.810Z,0.00
2022-09-20T04:35:32.101Z,0.00
2022-09-20T04:36:35.382Z,0.50
2022-09-20T04:37:39.070Z,1.00
2022-09-20T04:38:42.417Z,0.50
2022-09-20T04:39:46.361Z,0.00
2022-09-20T04:40:49.848Z,0.60
2022-09-20T04:41:53.540Z,0.50
2022-09-20T04:42:56.721Z,0.25
2022-09-20T04:44:00.004Z,0.00
2022-09-20T04:45:03.293Z,0.00
2022-09-20T04:46:06.670Z,0.50
2022-09-20T04:47:09.859Z,0.50
2022-09-20T04:48:13.756Z,0.00
2022-09-20T04:49:17.960Z,0.00
2022-09-20T04:50:21.756Z,0.50
2022-09-20T04:51:25.246Z,0.50
2022-09-20T04:52:28.945Z,0.50
2022-09-20T04:53:32.646Z,0.00
2022-09-20T04:54:36.944Z,0.00
2022-09-20T04:55:40.633Z,0.00
2022-09-20T04:56:44.024Z,0.25
2022-09-20T04:57:47.389Z,0.00
2022-09-20T04:58:50.690Z,0.25
2022-09-20T04:59:53.975Z,0.00
2022-09-20T05:00:57.130Z,0.00
2022-09-20T05:02:00.482Z,0.00
2022-09-20T05:03:03.930Z,0.00
2022-09-20T05:04:07.523Z,0.00
2022-09-20T05:05:11.235Z,0.00
2022-09-20T05:06:14.405Z,0.50
2022-09-20T05:07:18.302Z,0.50
2022-09-20T05:08:21.583Z,0.50
2022-09-20T05:09:25.785Z,0.50
2022-09-20T05:10:29.275Z,1.00
2022-09-20T05:11:32.468Z,0.00
2022-09-20T05:12:35.956Z,0.00
2022-09-20T05:13:39.756Z,0.00
2022-09-20T05:14:43.128Z,0.00
2022-09-20T05:15:46.520Z,0.50
2022-09-20T05:16:50.087Z,0.50
2022-09-20T05:17:53.213Z,0.50
2022-09-20T05:18:56.575Z,0.50
2022-09-20T05:19:59.827Z,0.00
2022-09-20T05:21:03.245Z,1.00
2022-09-20T05:22:06.740Z,0.50
2022-09-20T05:23:10.017Z,0.50
2022-09-20T05:24:13.698Z,0.50
2022-09-20T05:25:17.613Z,0.00
2022-09-20T05:26:20.898Z,0.50
2022-09-20T05:27:24.300Z,0.25
2022-09-20T05:28:27.934Z,0.00
2022-09-20T05:29:31.259Z,0.00
2022-09-20T05:30:34.546Z,0.00
2022-09-20T05:31:37.846Z,0.00
2022-09-20T05:32:41.316Z,0.00
2022-09-20T05:33:44.491Z,0.00
2022-09-20T05:34:47.786Z,0.50
2022-09-20T05:35:51.181Z,1.25
2022-09-20T05:36:54.560Z,0.00
2022-09-20T05:37:57.709Z,0.50
2022-09-20T05:39:03.390Z,0.50
2022-09-20T05:40:05.774Z,1.00
2022-09-20T05:41:08.930Z,0.50
2022-09-20T05:42:12.430Z,0.00
2022-09-20T05:43:16.020Z,0.00
2022-09-20T05:44:19.518Z,0.00
2022-09-20T05:45:23.084Z,0.50
2022-09-20T05:46:33.486Z,1.00
2022-09-20T05:47:36.823Z,0.50
2022-09-20T05:48:40.320Z,0.00
2022-09-20T05:49:44.958Z,0.50
2022-09-20T05:50:48.313Z,0.50
2022-09-20T05:51:51.906Z,0.50
2022-09-20T05:52:55.301Z,0.50
2022-09-20T05:53:58.683Z,0.50
2022-09-20T05:55:02.171Z,0.75
2022-09-20T05:56:05.451Z,0.50
2022-09-20T05:57:09.044Z,0.00
2022-09-20T05:58:12.235Z,0.50
2022-09-20T05:59:15.811Z,0.75
2022-09-20T06:00:19.409Z,0.00
2022-09-20T06:01:23.013Z,0.50
2022-09-20T06:02:26.569Z,1.00
2022-09-20T06:03:29.769Z,0.00
2022-09-20T06:04:33.464Z,1.00
2022-09-20T06:05:36.964Z,0.75
2022-09-20T06:06:40.613Z,0.50
2022-09-20T06:07:44.070Z,0.50
2022-09-20T06:08:47.525Z,0.50
2022-09-20T06:09:50.912Z,0.50
2022-09-20T06:10:54.622Z,0.50
2022-09-20T06:11:58.080Z,0.50
2022-09-20T06:13:01.485Z,0.00
2022-09-20T06:14:05.663Z,0.50
2022-09-20T06:15:09.208Z,0.50
2022-09-20T06:16:12.702Z,1.00
2022-09-20T06:17:16.148Z,1.00
2022-09-20T06:18:19.539Z,0.50
2022-09-20T06:19:23.023Z,0.00
2022-09-20T06:20:26.545Z,0.00
2022-09-20T06:21:30.511Z,1.00
2022-09-20T06:22:34.123Z,0.25
2022-09-20T06:23:37.796Z,0.50
2022-09-20T06:24:41.190Z,0.50
2022-09-20T06:25:44.678Z,1.00
2022-09-20T06:26:48.171Z,1.00
2022-09-20T06:27:52.985Z,1.25
2022-09-20T06:28:58.430Z,1.00
2022-09-20T06:30:00.993Z,0.00
2022-09-20T06:31:05.519Z,1.00
2022-09-20T06:32:10.502Z,1.50
2022-09-20T06:33:13.923Z,0.50
2022-09-20T06:34:17.403Z,0.00
2022-09-20T06:35:20.685Z,0.50
2022-09-20T06:36:24.075Z,0.50
2022-09-20T06:37:27.563Z,0.50
2022-09-20T06:38:30.745Z,1.00
2022-09-20T06:39:34.025Z,0.50
2022-09-20T06:40:37.530Z,0.50
2022-09-20T06:41:40.810Z,1.00
2022-09-20T06:42:44.185Z,0.50
2022-09-20T06:43:47.263Z,1.00
2022-09-20T06:44:50.754Z,1.00
2022-09-20T06:45:53.969Z,0.50
2022-09-20T06:46:57.836Z,0.50
2022-09-20T06:48:01.061Z,1.00
2022-09-20T06:49:04.717Z,1.00
2022-09-20T06:50:08.632Z,1.00
2022-09-20T06:51:12.096Z,1.00
2022-09-20T06:52:16.408Z,1.50
2022-09-20T06:53:20.306Z,0.50
2022-09-20T06:54:24.120Z,0.50
2022-09-20T06:55:29.133Z,1.00
2022-09-20T06:56:31.815Z,1.00
2022-09-20T06:57:35.395Z,0.50
2022-09-20T06:58:38.858Z,0.25
2022-09-20T06:59:42.367Z,1.00
2022-09-20T07:00:46.435Z,0.50
2022-09-20T07:01:50.242Z,0.50
2022-09-20T07:02:54.576Z,1.00
2022-09-20T07:03:57.965Z,1.50
2022-09-20T07:05:01.375Z,1.00
2022-09-20T07:06:04.448Z,1.00
2022-09-20T07:07:09.637Z,1.50
2022-09-20T07:08:12.491Z,1.50
2022-09-20T07:09:16.336Z,1.50
2022-09-20T07:10:20.024Z,1.00
2022-09-20T07:11:23.211Z,1.00
2022-09-20T07:12:26.493Z,1.00
2022-09-20T07:13:36.939Z,1.00
2022-09-20T07:14:41.244Z,1.50
2022-09-20T07:15:44.535Z,1.50
2022-09-20T07:16:49.083Z,0.50
2022-09-20T07:17:52.446Z,0.50
2022-09-20T07:18:57.771Z,1.00
2022-09-20T07:20:01.056Z,1.00
2022-09-20T07:21:04.949Z,1.00
2022-09-20T07:22:08.241Z,1.50
2022-09-20T07:23:12.136Z,1.50
2022-09-20T07:24:15.624Z,1.50
2022-09-20T07:25:19.006Z,2.50
2022-09-20T07:26:25.984Z,1.50
2022-09-20T07:27:29.551Z,0.50
2022-09-20T07:28:33.479Z,1.00
2022-09-20T07:29:37.261Z,1.50
2022-09-20T07:30:43.430Z,1.50
2022-09-20T07:31:47.244Z,0.50
2022-09-20T07:32:50.607Z,0.00
2022-09-20T07:33:54.600Z,0.75
2022-09-20T07:34:57.885Z,1.00
2022-09-20T07:36:01.271Z,1.50
2022-09-20T07:37:04.761Z,1.00
2022-09-20T07:38:08.461Z,1.50
2022-09-20T07:39:11.946Z,2.50
2022-09-20T07:40:15.605Z,1.75
2022-09-20T07:41:18.625Z,1.50
2022-09-20T07:42:22.408Z,1.50
2022-09-20T07:43:25.998Z,1.00
2022-09-20T07:44:29.590Z,1.50
2022-09-20T07:45:33.314Z,1.50
2022-09-20T07:46:36.903Z,1.00
2022-09-20T07:47:41.003Z,1.00
2022-09-20T07:48:44.994Z,1.50
2022-09-20T07:49:48.442Z,1.50
2022-09-20T07:50:51.755Z,1.00
2022-09-20T07:51:57.497Z,1.00
2022-09-20T07:53:00.690Z,0.00
2022-09-20T07:54:03.961Z,0.75
2022-09-20T07:55:07.466Z,1.00
2022-09-20T07:56:12.690Z,0.75
2022-09-20T07:57:16.695Z,1.25
2022-09-20T07:58:20.095Z,2.00
2022-09-20T07:59:24.083Z,1.50
2022-09-20T08:00:27.568Z,1.00
2022-09-20T08:01:31.090Z,1.00
2022-09-20T08:02:35.200Z,0.50
2022-09-20T08:03:40.702Z,1.50
2022-09-20T08:04:44.309Z,1.50
2022-09-20T08:05:47.666Z,1.00
2022-09-20T08:06:51.174Z,1.00
2022-09-20T08:07:55.061Z,2.50
2022-09-20T08:08:58.343Z,2.00
2022-09-20T08:10:01.831Z,1.50
2022-09-20T08:11:05.324Z,0.75
2022-09-20T08:15:34.239Z,1.50
2022-09-20T08:16:37.786Z,1.00
2022-09-20T08:17:41.308Z,1.50
2022-09-20T08:18:45.099Z,1.00
2022-09-20T08:19:48.812Z,1.25
2022-09-20T08:20:52.020Z,1.00
2022-09-20T08:21:55.876Z,1.50
2022-09-20T08:23:19.747Z,1.50
2022-09-20T08:24:04.488Z,0.50
2022-09-20T08:25:08.904Z,0.25
2022-09-20T08:26:12.394Z,1.25
2022-09-20T08:27:16.302Z,1.00
2022-09-20T08:28:19.797Z,1.00
2022-09-20T08:29:23.061Z,0.75
2022-09-20T08:30:27.788Z,0.50
2022-09-20T08:31:30.990Z,0.50
2022-09-20T08:32:34.309Z,1.00
2022-09-20T08:33:37.842Z,1.00
2022-09-20T08:34:49.398Z,0.50
2022-09-20T08:35:51.265Z,1.50
2022-09-20T08:36:54.966Z,0.40
2022-09-20T08:39:57.213Z,1.00
2022-09-20T08:40:08.231Z,1.50
2022-09-20T08:41:12.096Z,1.00
2022-09-20T08:42:16.012Z,1.00
2022-09-20T08:43:22.299Z,1.75
2022-09-20T08:44:24.092Z,2.00
2022-09-20T08:45:35.279Z,1.00
2022-09-20T08:46:32.357Z,1.00
2022-09-20T08:47:36.100Z,2.50
2022-09-20T08:48:39.478Z,2.00
2022-09-20T08:49:46.175Z,1.00
2022-09-20T08:50:47.398Z,1.00
2022-09-20T08:51:50.566Z,1.00
2022-09-20T08:52:59.809Z,1.00
2022-09-20T08:53:58.359Z,1.00
2022-09-20T08:55:07.212Z,1.00
2022-09-20T08:56:06.571Z,1.00
2022-09-20T08:57:10.058Z,1.50
2022-09-20T08:58:14.473Z,2.00
2022-09-20T08:59:18.382Z,1.50
2022-09-20T09:00:22.084Z,2.00
2022-09-20T09:01:25.524Z,2.25
2022-09-20T09:02:28.876Z,1.00
2022-09-20T09:03:32.334Z,1.00
2022-09-20T09:04:35.813Z,1.50
2022-09-20T09:05:39.199Z,1.00
2022-09-20T09:06:42.789Z,0.50
2022-09-20T09:07:46.385Z,1.00
2022-09-20T09:08:49.976Z,1.00
2022-09-20T09:09:53.773Z,1.50
2022-09-20T09:10:57.060Z,1.50
2022-09-20T09:12:00.448Z,1.00
2022-09-20T09:13:03.722Z,1.50
2022-09-20T09:14:06.907Z,2.00
2022-09-20T09:15:09.984Z,2.00
2022-09-20T09:16:13.645Z,1.75
2022-09-20T09:17:17.170Z,1.50
2022-09-20T09:18:20.564Z,0.50
2022-09-20T09:19:23.850Z,1.00
2022-09-20T09:20:27.849Z,1.50
2022-09-20T09:21:31.004Z,1.25
2022-09-20T09:22:34.714Z,1.50
2022-09-20T09:23:38.115Z,1.50
2022-09-20T09:24:42.004Z,1.50
2022-09-20T09:25:45.401Z,1.50
2022-09-20T09:26:49.079Z,0.00
2022-09-20T09:27:52.670Z,0.50
2022-09-20T09:28:56.266Z,1.00
2022-09-20T09:29:59.761Z,1.50
2022-09-20T09:31:03.049Z,0.75
2022-09-20T09:32:06.460Z,1.00
2022-09-20T09:33:09.930Z,1.00
2022-09-20T09:34:14.602Z,0.50
2022-09-20T09:35:17.808Z,0.50
2022-09-20T09:36:21.097Z,1.50
2022-09-20T09:37:28.273Z,2.00
2022-09-20T09:38:28.801Z,2.75
2022-09-20T09:39:31.989Z,1.00
2022-09-20T09:40:35.421Z,0.00
2022-09-20T09:41:39.057Z,1.50
2022-09-20T09:42:42.447Z,1.00
2022-09-20T09:43:45.627Z,0.50
2022-09-20T09:44:49.107Z,1.00
2022-09-20T09:45:52.843Z,1.00
2022-09-20T09:46:56.203Z,0.50
2022-09-20T09:47:59.679Z,1.50
2022-09-20T09:49:02.969Z,1.50
2022-09-20T09:50:09.684Z,1.50
2022-09-20T09:51:10.556Z,1.00
2022-09-20T09:52:13.944Z,1.00
2022-09-20T09:53:17.769Z,1.00
2022-09-20T09:54:21.336Z,1.50
2022-09-20T09:55:24.505Z,0.50
2022-09-20T09:56:27.818Z,1.50
2022-09-20T09:57:31.187Z,2.00
2022-09-20T09:58:34.468Z,2.00
2022-09-20T09:59:37.748Z,1.50
2022-09-20T10:00:41.140Z,1.50
2022-09-20T10:01:44.791Z,1.00
2022-09-20T10:02:48.222Z,1.25
2022-09-20T10:03:51.602Z,1.50
2022-09-20T10:04:54.754Z,1.00
2022-09-20T10:05:57.864Z,1.50
2022-09-20T10:07:00.947Z,1.50
2022-09-20T10:08:04.107Z,1.00
2022-09-20T10:09:07.136Z,1.00
2022-09-20T10:10:10.602Z,1.00
2022-09-20T10:11:13.763Z,1.00
2022-09-20T10:12:17.061Z,0.75
2022-09-20T10:13:20.447Z,0.25
2022-09-20T10:14:23.843Z,0.00
2022-09-20T10:15:27.033Z,0.00
2022-09-20T10:16:30.518Z,0.50
2022-09-20T10:17:33.690Z,1.60
2022-09-20T10:18:36.662Z,1.50
2022-09-20T10:19:40.157Z,1.50
2022-09-20T10:20:43.232Z,2.00
2022-09-20T10:21:46.518Z,1.00
2022-09-20T10:24:16.922Z,1.00
2022-09-20T10:25:20.441Z,1.25
2022-09-20T10:26:23.923Z,1.00
2022-09-20T10:27:27.733Z,1.50
2022-09-20T10:28:30.900Z,2.00
2022-09-20T10:29:34.083Z,2.00
2022-09-20T10:30:37.505Z,0.75
2022-09-20T10:31:40.750Z,0.50
2022-09-20T10:32:44.367Z,1.00
2022-09-20T10:33:47.414Z,1.00
2022-09-20T10:34:50.703Z,0.00
2022-09-20T10:35:53.800Z,0.00
2022-09-20T10:36:57.071Z,1.00
2022-09-20T10:38:00.561Z,1.00
2022-09-20T10:39:03.639Z,0.75
2022-09-20T10:40:06.860Z,1.00
2022-09-20T10:41:10.111Z,0.50
2022-09-20T10:42:13.486Z,0.50
2022-09-20T10:43:16.956Z,1.00
2022-09-20T10:44:20.468Z,1.50
2022-09-20T10:45:53.335Z,1.25
2022-09-20T10:46:32.432Z,1.50
2022-09-20T10:47:32.579Z,1.50
2022-09-20T10:48:37.784Z,1.00
2022-09-20T10:49:40.780Z,1.00
2022-09-20T10:50:44.059Z,0.50
2022-09-20T10:51:47.862Z,0.50
2022-09-20T10:52:51.143Z,0.50
2022-09-20T10:53:54.748Z,0.50
2022-09-20T10:54:59.166Z,0.75
2022-09-20T10:56:05.099Z,1.00
2022-09-20T10:57:08.291Z,0.50
2022-09-20T10:58:12.687Z,1.00
2022-09-20T10:59:16.184Z,1.50
2022-09-20T11:00:19.994Z,1.50
2022-09-20T11:01:23.501Z,0.50
2022-09-20T11:02:26.998Z,1.00
2022-09-20T11:03:30.650Z,0.50
2022-09-20T11:04:34.241Z,0.50
2022-09-20T11:05:37.730Z,0.50
2022-09-20T11:06:41.229Z,0.50
2022-09-20T11:07:44.806Z,1.00
2022-09-20T11:08:48.093Z,1.25
2022-09-20T11:09:51.451Z,1.50
2022-09-20T11:10:54.880Z,0.50
2022-09-20T11:11:58.148Z,0.50
2022-09-20T11:13:01.439Z,0.50
2022-09-20T11:14:04.722Z,1.00
2022-09-20T11:15:08.029Z,0.75
2022-09-20T11:16:12.877Z,1.00
2022-09-20T11:17:16.630Z,1.00
2022-09-20T11:18:20.007Z,0.75
2022-09-20T11:19:23.612Z,1.00
2022-09-20T11:20:27.086Z,1.25
2022-09-20T11:21:30.674Z,1.25
2022-09-20T11:22:34.374Z,1.50
2022-09-20T11:23:37.753Z,1.50
2022-09-20T11:24:41.085Z,0.50
2022-09-20T11:25:44.636Z,1.00
2022-09-20T11:26:47.724Z,2.00
2022-09-20T11:27:51.331Z,2.00
2022-09-20T11:28:54.891Z,1.00
2022-09-20T11:29:58.388Z,1.00
2022-09-20T11:31:01.565Z,0.50
2022-09-20T11:32:05.001Z,1.50
2022-09-20T11:33:08.442Z,1.50
2022-09-20T11:34:11.875Z,0.50
2022-09-20T11:35:15.421Z,0.50
2022-09-20T11:36:19.015Z,0.50
2022-09-20T11:37:22.571Z,0.25
2022-09-20T11:38:26.094Z,0.50
2022-09-20T11:39:29.890Z,0.50
2022-09-20T11:40:34.330Z,1.25
2022-09-20T11:41:38.089Z,1.00
2022-09-20T11:42:41.885Z,0.50
2022-09-20T11:43:45.283Z,0.50
2022-09-20T11:44:48.466Z,1.00
2022-09-20T11:45:52.479Z,1.00
2022-09-20T11:46:55.840Z,1.00
2022-09-20T11:47:59.247Z,1.00
2022-09-20T11:49:02.825Z,1.00
2022-09-20T11:50:06.104Z,0.00
2022-09-20T11:51:09.606Z,0.50
2022-09-20T11:52:12.995Z,1.00
2022-09-20T11:53:16.482Z,1.00
2022-09-20T11:54:20.083Z,0.50
2022-09-20T11:55:24.171Z,0.75
2022-09-20T11:56:27.984Z,0.00
2022-09-20T11:57:31.562Z,1.00
2022-09-20T11:58:34.916Z,0.50
2022-09-20T11:59:38.575Z,0.50
2022-09-20T12:00:42.328Z,0.50
2022-09-20T12:01:46.358Z,1.00
2022-09-20T12:02:50.177Z,1.00
2022-09-20T12:04:08.691Z,0.25
2022-09-20T12:04:58.551Z,0.50
2022-09-20T12:06:02.027Z,0.50
2022-09-20T12:07:09.661Z,1.00
2022-09-20T12:08:10.642Z,1.50
2022-09-20T12:09:15.057Z,0.50
2022-09-20T12:10:18.440Z,0.50
2022-09-20T12:11:22.148Z,0.80
2022-09-20T12:12:25.835Z,1.00
2022-09-20T12:13:29.422Z,0.75
2022-09-20T12:14:32.907Z,1.00
2022-09-20T12:15:36.513Z,1.25
2022-09-20T12:16:39.967Z,1.00
2022-09-20T12:17:43.580Z,0.50
2022-09-20T12:18:47.128Z,0.00
2022-09-20T12:19:50.879Z,0.75
2022-09-20T12:20:54.148Z,0.50
2022-09-20T12:21:57.743Z,0.00
2022-09-20T12:23:01.330Z,0.25
2022-09-20T12:24:04.622Z,1.00
2022-09-20T12:25:08.213Z,0.00
2022-09-20T12:26:11.711Z,0.50
2022-09-20T12:27:15.185Z,1.00
2022-09-20T12:28:18.688Z,0.50
2022-09-20T12:29:22.063Z,0.50
2022-09-20T12:30:25.558Z,0.75
2022-09-20T12:31:29.104Z,1.25
2022-09-20T12:32:32.940Z,1.50
2022-09-20T12:33:36.632Z,1.00
2022-09-20T12:34:40.121Z,0.00
2022-09-20T12:35:44.115Z,0.40
2022-09-20T12:36:47.316Z,0.50
2022-09-20T12:37:50.589Z,0.60
2022-09-20T12:38:54.078Z,1.50
2022-09-20T12:39:57.713Z,1.00
2022-09-20T12:41:00.957Z,0.50
2022-09-20T12:42:04.342Z,0.00
2022-09-20T12:43:07.663Z,0.50
2022-09-20T12:44:10.805Z,0.50
2022-09-20T12:45:13.989Z,0.00
2022-09-20T12:46:17.667Z,0.50
2022-09-20T12:47:20.966Z,1.25
2022-09-20T12:48:24.349Z,1.50
2022-09-20T12:49:28.066Z,1.00
2022-09-20T12:50:31.540Z,0.50
2022-09-20T12:51:35.027Z,1.00
2022-09-20T12:52:38.408Z,1.00
2022-09-20T12:53:41.998Z,1.00
2022-09-20T12:54:45.384Z,1.50
2022-09-20T12:55:48.666Z,1.25
2022-09-20T12:56:52.077Z,1.00
2022-09-20T12:57:55.238Z,1.50
2022-09-20T12:58:58.734Z,1.00
2022-09-20T13:00:02.113Z,1.50
2022-09-20T13:01:05.389Z,1.50
2022-09-20T13:02:08.621Z,1.50
2022-09-20T13:03:11.766Z,1.00
2022-09-20T13:04:14.962Z,0.25
2022-09-20T13:05:18.331Z,0.00
2022-09-20T13:06:21.525Z,1.00
2022-09-20T13:07:24.651Z,1.00
2022-09-20T13:08:27.529Z,1.00
2022-09-20T13:09:30.780Z,1.00
2022-09-20T13:10:34.241Z,1.00
2022-09-20T13:11:37.990Z,1.00
2022-09-20T13:12:41.423Z,1.75
2022-09-20T13:13:44.707Z,1.75
2022-09-20T13:14:47.891Z,0.50
2022-09-20T13:15:51.273Z,0.50
2022-09-20T13:16:54.222Z,1.00
2022-09-20T13:17:57.551Z,0.50
2022-09-20T13:19:00.938Z,1.50
2022-09-20T13:20:04.467Z,1.50
2022-09-20T13:21:07.496Z,1.00
2022-09-20T13:22:10.899Z,1.50
2022-09-20T13:23:14.158Z,1.00
2022-09-20T13:24:17.450Z,1.00
2022-09-20T13:25:20.627Z,1.00
2022-09-20T13:26:23.608Z,0.50
2022-09-20T13:27:26.889Z,0.25
2022-09-20T13:28:30.069Z,0.75
2022-09-20T13:29:33.152Z,1.00
2022-09-20T13:30:36.337Z,1.50
2022-09-20T13:31:39.679Z,0.50
2022-09-20T13:32:42.696Z,0.50
2022-09-20T13:33:45.992Z,1.50
2022-09-20T13:34:49.265Z,1.00
2022-09-20T13:35:52.549Z,1.00
2022-09-20T13:36:56.306Z,1.00
2022-09-20T13:38:00.041Z,1.00
2022-09-20T13:39:03.281Z,1.00
2022-09-20T13:40:06.472Z,1.25
2022-09-20T13:41:09.480Z,1.50
2022-09-20T13:42:12.560Z,2.00
2022-09-20T13:43:23.656Z,2.00
2022-09-20T13:44:20.468Z,0.50
2022-09-20T13:45:23.646Z,0.50
2022-09-20T13:46:26.621Z,1.00
2022-09-20T13:47:29.924Z,1.00
2022-09-20T13:48:33.094Z,1.00
2022-09-20T13:49:36.480Z,1.00
2022-09-20T13:50:44.916Z,1.00
2022-09-20T13:51:44.239Z,0.00
2022-09-20T13:52:47.862Z,1.00
2022-09-20T13:53:50.944Z,2.00
2022-09-20T13:54:54.019Z,1.50
2022-09-20T13:55:57.199Z,1.00
2022-09-20T13:57:00.587Z,1.00
2022-09-20T13:58:03.666Z,1.50
2022-09-20T13:59:06.863Z,1.00
2022-09-20T14:00:09.927Z,1.00
2022-09-20T14:01:12.946Z,1.00
2022-09-20T14:02:15.998Z,1.00
2022-09-20T14:03:18.959Z,1.00
2022-09-20T14:04:22.053Z,1.50
2022-09-20T14:05:25.020Z,1.50
2022-09-20T14:06:28.307Z,0.75
2022-09-20T14:07:31.383Z,1.00
2022-09-20T14:08:34.569Z,1.00
2022-09-20T14:09:37.747Z,0.50
2022-09-20T14:10:41.030Z,0.25
2022-09-20T14:11:44.210Z,1.50
2022-09-20T14:12:47.298Z,1.50